createdAt,value
2017-08-22T00:00:30.493Z,1022.6
2017-08-22T00:01:29.569Z,1022.6
2017-08-22T00:02:29.263Z,1022.6
2017-08-22T00:03:28.269Z,1022.6
2017-08-22T00:04:27.735Z,1022.6
2017-08-22T00:05:26.814Z,1022.6
2017-08-22T00:06:26.154Z,1022.7
2017-08-22T00:06:56.534Z,1022.7
2017-08-22T00:07:27.031Z,1022.7
2017-08-22T00:07:57.306Z,1022.7
2017-08-22T00:08:27.812Z,1022.7
2017-08-22T00:09:23.983Z,1022.7
2017-08-22T00:10:23.191Z,1022.7
2017-08-22T00:12:21.264Z,1022.7
2017-08-22T00:13:20.831Z,1022.6
2017-08-22T00:14:20.025Z,1022.6
2017-08-22T00:15:19.229Z,1022.6
2017-08-22T00:16:18.421Z,1022.7
2017-08-22T00:17:17.873Z,1022.6
2017-08-22T00:18:16.950Z,1022.7
2017-08-22T00:19:16.137Z,1022.7
2017-08-22T00:20:15.730Z,1022.6
2017-08-22T00:21:14.805Z,1022.6
2017-08-22T00:22:13.884Z,1022.7
2017-08-22T00:23:13.060Z,1022.6
2017-08-22T00:24:12.252Z,1022.7
2017-08-22T00:25:11.710Z,1022.7
2017-08-22T00:26:10.915Z,1022.7
2017-08-22T00:27:10.096Z,1022.7
2017-08-22T00:28:09.287Z,1022.7
2017-08-22T00:29:08.486Z,1022.7
2017-08-22T00:30:07.978Z,1022.7
2017-08-22T00:31:07.169Z,1022.8
2017-08-22T00:32:06.366Z,1022.8
2017-08-22T00:33:05.446Z,1022.8
2017-08-22T00:34:05.147Z,1022.7
2017-08-22T00:35:04.220Z,1022.8
2017-08-22T00:36:03.435Z,1022.7
2017-08-22T00:37:02.514Z,1022.7
2017-08-22T00:38:02.087Z,1022.8
2017-08-22T00:39:01.167Z,1022.7
2017-08-22T00:40:00.241Z,1022.8
2017-08-22T00:40:59.583Z,1022.7
2017-08-22T00:41:59.045Z,1022.7
2017-08-22T00:42:58.239Z,1022.7
2017-08-22T00:43:57.337Z,1022.7
2017-08-22T00:44:56.685Z,1022.7
2017-08-22T00:45:56.027Z,1022.6
2017-08-22T00:46:54.984Z,1022.6
2017-08-22T00:47:54.449Z,1022.6
2017-08-22T00:48:53.661Z,1022.7
2017-08-22T00:49:52.846Z,1022.7
2017-08-22T00:51:51.437Z,1022.7
2017-08-22T00:52:50.642Z,1022.6
2017-08-22T00:53:49.826Z,1022.6
2017-08-22T00:54:48.916Z,1022.6
2017-08-22T00:55:48.365Z,1022.6
2017-08-22T00:56:47.557Z,1022.6
2017-08-22T00:57:46.739Z,1022.6
2017-08-22T00:58:45.938Z,1022.7
2017-08-22T00:59:45.390Z,1022.6
2017-08-22T01:00:44.226Z,1022.6
2017-08-22T01:01:43.431Z,1022.6
2017-08-22T01:02:13.938Z,1022.6
2017-08-22T01:05:40.476Z,1022.6
2017-08-22T01:06:40.046Z,1022.7
2017-08-22T01:07:39.011Z,1022.6
2017-08-22T01:08:38.223Z,1022.6
2017-08-22T01:09:37.298Z,1022.6
2017-08-22T01:10:36.888Z,1022.6
2017-08-22T01:11:35.955Z,1022.7
2017-08-22T01:12:35.145Z,1022.7
2017-08-22T01:13:34.605Z,1022.6
2017-08-22T01:14:33.441Z,1022.6
2017-08-22T01:15:33.026Z,1022.7
2017-08-22T01:16:32.210Z,1022.7
2017-08-22T01:17:31.414Z,1022.7
2017-08-22T01:18:30.749Z,1022.7
2017-08-22T01:19:30.102Z,1022.7
2017-08-22T01:20:29.163Z,1022.8
2017-08-22T01:21:28.175Z,1022.7
2017-08-22T01:22:27.375Z,1022.7
2017-08-22T01:23:26.954Z,1022.7
2017-08-22T01:24:26.027Z,1022.8
2017-08-22T01:25:25.229Z,1022.8
2017-08-22T01:26:24.424Z,1022.8
2017-08-22T01:27:23.614Z,1022.8
2017-08-22T01:28:23.078Z,1022.8
2017-08-22T01:29:22.150Z,1022.9
2017-08-22T01:30:21.216Z,1022.8
2017-08-22T01:31:20.411Z,1022.8
2017-08-22T01:31:50.814Z,1022.8
2017-08-22T01:32:21.322Z,1022.8
2017-08-22T01:32:51.701Z,1022.8
2017-08-22T01:33:22.081Z,1022.8
2017-08-22T01:34:18.139Z,1022.9
2017-08-22T01:35:17.597Z,1022.9
2017-08-22T01:36:16.672Z,1022.9
2017-08-22T01:37:15.757Z,1023
2017-08-22T01:38:15.333Z,1022.9
2017-08-22T01:39:14.529Z,1022.9
2017-08-22T01:40:13.602Z,1022.9
2017-08-22T01:41:12.667Z,1022.9
2017-08-22T01:42:12.125Z,1022.9
2017-08-22T01:43:11.576Z,1023
2017-08-22T01:44:10.652Z,1022.9
2017-08-22T01:45:09.830Z,1023
2017-08-22T01:46:09.053Z,1022.9
2017-08-22T01:47:08.134Z,1023
2017-08-22T01:48:07.709Z,1023
2017-08-22T01:50:05.801Z,1023
2017-08-22T01:51:05.281Z,1023
2017-08-22T01:52:04.470Z,1023
2017-08-22T01:53:03.568Z,1023
2017-08-22T01:55:02.035Z,1023
2017-08-22T01:56:01.230Z,1023
2017-08-22T01:57:00.316Z,1023
2017-08-22T01:57:59.900Z,1023
2017-08-22T01:58:58.958Z,1023
2017-08-22T01:59:58.185Z,1023
2017-08-22T02:00:57.530Z,1022.9
2017-08-22T02:01:56.722Z,1023
2017-08-22T02:02:55.913Z,1023
2017-08-22T02:03:54.981Z,1022.9
2017-08-22T02:04:54.429Z,1022.9
2017-08-22T02:05:53.624Z,1023
2017-08-22T02:06:52.825Z,1023
2017-08-22T02:07:52.024Z,1022.9
2017-08-22T02:08:51.207Z,1022.9
2017-08-22T02:09:50.462Z,1023
2017-08-22T02:10:49.534Z,1023
2017-08-22T02:11:48.721Z,1023
2017-08-22T02:12:48.292Z,1022.9
2017-08-22T02:13:47.490Z,1022.9
2017-08-22T02:14:46.560Z,1022.9
2017-08-22T02:15:46.026Z,1022.9
2017-08-22T02:16:45.233Z,1022.9
2017-08-22T02:17:44.303Z,1022.9
2017-08-22T02:18:43.497Z,1022.9
2017-08-22T02:19:42.567Z,1022.9
2017-08-22T02:20:41.774Z,1022.9
2017-08-22T02:21:41.371Z,1022.8
2017-08-22T02:22:40.565Z,1022.8
2017-08-22T02:23:39.757Z,1022.9
2017-08-22T02:25:38.218Z,1022.9
2017-08-22T02:26:37.175Z,1022.9
2017-08-22T02:27:36.250Z,1022.9
2017-08-22T02:28:35.831Z,1022.9
2017-08-22T02:29:35.027Z,1022.9
2017-08-22T02:30:34.213Z,1022.9
2017-08-22T02:31:33.409Z,1022.9
2017-08-22T02:32:32.480Z,1022.9
2017-08-22T02:33:31.600Z,1022.9
2017-08-22T02:34:31.053Z,1022.9
2017-08-22T02:35:30.123Z,1022.9
2017-08-22T02:37:28.587Z,1022.9
2017-08-22T02:38:28.165Z,1022.9
2017-08-22T02:39:27.127Z,1022.9
2017-08-22T02:40:26.326Z,1022.8
2017-08-22T02:41:25.416Z,1022.8
2017-08-22T02:42:24.611Z,1022.8
2017-08-22T02:43:24.189Z,1022.7
2017-08-22T02:44:23.267Z,1022.7
2017-08-22T02:45:22.355Z,1022.8
2017-08-22T02:46:21.928Z,1022.7
2017-08-22T02:47:20.656Z,1022.8
2017-08-22T02:48:20.358Z,1022.8
2017-08-22T02:49:19.566Z,1022.7
2017-08-22T02:50:18.400Z,1022.7
2017-08-22T02:51:17.599Z,1022.7
2017-08-22T02:52:16.939Z,1022.7
2017-08-22T02:53:16.018Z,1022.8
2017-08-22T02:54:15.233Z,1022.7
2017-08-22T02:55:14.441Z,1022.7
2017-08-22T02:56:13.648Z,1022.7
2017-08-22T02:57:12.842Z,1022.7
2017-08-22T02:58:12.429Z,1022.7
2017-08-22T02:59:11.767Z,1022.7
2017-08-22T03:00:10.608Z,1022.7
2017-08-22T03:01:10.181Z,1022.6
2017-08-22T03:02:09.270Z,1022.7
2017-08-22T03:03:08.342Z,1022.7
2017-08-22T03:04:07.392Z,1022.7
2017-08-22T03:05:06.965Z,1022.7
2017-08-22T03:06:06.175Z,1022.7
2017-08-22T03:07:05.130Z,1022.7
2017-08-22T03:08:04.306Z,1022.7
2017-08-22T03:09:03.499Z,1022.7
2017-08-22T03:10:03.082Z,1022.7
2017-08-22T03:11:02.160Z,1022.7
2017-08-22T03:12:01.253Z,1022.7
2017-08-22T03:13:00.338Z,1022.7
2017-08-22T03:13:59.911Z,1022.7
2017-08-22T03:14:58.998Z,1022.7
2017-08-22T03:15:58.331Z,1022.8
2017-08-22T03:16:57.411Z,1022.8
2017-08-22T03:17:56.601Z,1022.8
2017-08-22T03:18:55.806Z,1022.9
2017-08-22T03:19:26.203Z,1022.9
2017-08-22T03:20:54.079Z,1022.8
2017-08-22T03:21:53.268Z,1022.9
2017-08-22T03:23:51.818Z,1022.9
2017-08-22T03:24:50.890Z,1022.9
2017-08-22T03:25:50.080Z,1022.9
2017-08-22T03:26:49.337Z,1022.9
2017-08-22T03:27:48.539Z,1022.9
2017-08-22T03:28:47.735Z,1022.9
2017-08-22T03:29:47.328Z,1022.9
2017-08-22T03:30:46.421Z,1022.9
2017-08-22T03:31:45.666Z,1022.9
2017-08-22T03:32:44.621Z,1022.9
2017-08-22T03:33:43.809Z,1022.9
2017-08-22T03:34:43.019Z,1022.8
2017-08-22T03:35:42.240Z,1022.8
2017-08-22T03:36:41.431Z,1022.9
2017-08-22T03:37:40.621Z,1022.9
2017-08-22T03:38:40.183Z,1022.8
2017-08-22T03:39:39.264Z,1022.8
2017-08-22T03:40:38.612Z,1022.9
2017-08-22T03:41:37.560Z,1022.9
2017-08-22T03:42:37.145Z,1022.8
2017-08-22T03:43:36.083Z,1022.8
2017-08-22T03:44:35.282Z,1022.8
2017-08-22T03:45:34.349Z,1022.8
2017-08-22T03:46:33.814Z,1022.8
2017-08-22T03:47:32.999Z,1022.8
2017-08-22T03:48:32.190Z,1022.8
2017-08-22T03:49:31.379Z,1022.8
2017-08-22T03:50:30.455Z,1022.8
2017-08-22T03:51:29.654Z,1022.8
2017-08-22T03:52:28.842Z,1022.8
2017-08-22T03:53:28.407Z,1022.8
2017-08-22T03:54:27.549Z,1022.8
2017-08-22T03:55:26.637Z,1022.9
2017-08-22T03:56:25.730Z,1022.8
2017-08-22T03:57:24.817Z,1022.8
2017-08-22T03:58:24.396Z,1022.8
2017-08-22T03:59:23.364Z,1022.8
2017-08-22T04:00:22.558Z,1022.9
2017-08-22T04:00:53.071Z,1022.9
2017-08-22T04:02:20.946Z,1022.9
2017-08-22T04:03:20.143Z,1022.9
2017-08-22T04:04:19.331Z,1022.8
2017-08-22T04:05:18.799Z,1022.8
2017-08-22T04:06:17.888Z,1022.8
2017-08-22T04:07:17.352Z,1022.8
2017-08-22T04:08:16.445Z,1022.8
2017-08-22T04:09:15.530Z,1022.8
2017-08-22T04:10:14.729Z,1022.8
2017-08-22T04:11:13.917Z,1022.8
2017-08-22T04:11:44.434Z,1022.8
2017-08-22T04:12:14.705Z,1022.7
2017-08-22T04:12:45.210Z,1022.7
2017-08-22T04:14:11.626Z,1022.7
2017-08-22T04:15:10.815Z,1022.7
2017-08-22T04:16:10.008Z,1022.7
2017-08-22T04:17:09.190Z,1022.7
2017-08-22T04:18:08.252Z,1022.7
2017-08-22T04:19:07.719Z,1022.7
2017-08-22T04:20:06.905Z,1022.7
2017-08-22T04:21:06.097Z,1022.7
2017-08-22T04:22:05.278Z,1022.7
2017-08-22T04:23:04.231Z,1022.7
2017-08-22T04:24:03.433Z,1022.7
2017-08-22T04:25:02.640Z,1022.7
2017-08-22T04:26:02.226Z,1022.7
2017-08-22T04:27:01.430Z,1022.7
2017-08-22T04:28:00.540Z,1022.7
2017-08-22T04:28:59.606Z,1022.7
2017-08-22T04:29:58.801Z,1022.7
2017-08-22T04:30:57.993Z,1022.6
2017-08-22T04:31:57.067Z,1022.6
2017-08-22T04:32:56.251Z,1022.6
2017-08-22T04:33:55.454Z,1022.6
2017-08-22T04:35:53.902Z,1022.6
2017-08-22T04:36:53.233Z,1022.7
2017-08-22T04:37:52.438Z,1022.7
2017-08-22T04:38:22.842Z,1022.7
2017-08-22T04:38:53.115Z,1022.7
2017-08-22T04:39:50.788Z,1022.7
2017-08-22T04:40:50.006Z,1022.7
2017-08-22T04:41:49.285Z,1022.7
2017-08-22T04:42:48.361Z,1022.7
2017-08-22T04:43:47.553Z,1022.6
2017-08-22T04:44:47.139Z,1022.7
2017-08-22T04:45:46.219Z,1022.6
2017-08-22T04:46:45.405Z,1022.6
2017-08-22T04:47:44.612Z,1022.6
2017-08-22T04:48:43.566Z,1022.7
2017-08-22T04:49:43.147Z,1022.7
2017-08-22T04:50:42.322Z,1022.6
2017-08-22T04:52:40.395Z,1022.6
2017-08-22T04:53:39.587Z,1022.6
2017-08-22T04:54:39.165Z,1022.7
2017-08-22T04:55:38.122Z,1022.7
2017-08-22T04:56:37.211Z,1022.7
2017-08-22T04:57:36.415Z,1022.7
2017-08-22T04:58:35.598Z,1022.7
2017-08-22T04:59:35.049Z,1022.7
2017-08-22T05:00:34.239Z,1022.7
2017-08-22T05:01:33.438Z,1022.6
2017-08-22T05:02:32.638Z,1022.7
2017-08-22T05:03:31.720Z,1022.7
2017-08-22T05:04:30.915Z,1022.7
2017-08-22T05:05:30.101Z,1022.8
2017-08-22T05:06:29.291Z,1022.8
2017-08-22T05:07:28.527Z,1022.8
2017-08-22T05:08:27.606Z,1022.7
2017-08-22T05:09:26.804Z,1022.7
2017-08-22T05:10:25.994Z,1022.7
2017-08-22T05:11:25.186Z,1022.8
2017-08-22T05:12:24.763Z,1022.8
2017-08-22T05:13:23.846Z,1022.8
2017-08-22T05:14:22.920Z,1022.8
2017-08-22T05:15:22.377Z,1022.8
2017-08-22T05:16:21.584Z,1022.8
2017-08-22T05:17:20.778Z,1022.8
2017-08-22T05:18:19.973Z,1022.9
2017-08-22T05:19:19.048Z,1022.8
2017-08-22T05:21:17.389Z,1022.8
2017-08-22T05:22:16.484Z,1022.9
2017-08-22T05:24:15.064Z,1022.9
2017-08-22T05:25:14.271Z,1022.9
2017-08-22T05:26:13.466Z,1022.9
2017-08-22T05:27:12.665Z,1022.8
2017-08-22T05:28:11.747Z,1022.8
2017-08-22T05:29:10.947Z,1022.8
2017-08-22T05:30:10.538Z,1022.8
2017-08-22T05:30:41.061Z,1022.8
2017-08-22T05:32:08.951Z,1022.8
2017-08-22T05:33:08.138Z,1022.8
2017-08-22T05:34:07.318Z,1022.8
2017-08-22T05:36:05.396Z,1022.8
2017-08-22T05:37:04.748Z,1022.8
2017-08-22T05:38:03.944Z,1022.7
2017-08-22T05:39:03.124Z,1022.7
2017-08-22T05:40:02.333Z,1022.7
2017-08-22T05:41:01.692Z,1022.7
2017-08-22T05:42:00.535Z,1022.7
2017-08-22T05:43:59.392Z,1022.7
2017-08-22T05:45:57.464Z,1022.7
2017-08-22T05:46:56.640Z,1022.6
2017-08-22T05:47:55.838Z,1022.7
2017-08-22T05:48:55.426Z,1022.7
2017-08-22T05:49:54.612Z,1022.7
2017-08-22T05:50:53.809Z,1022.6
2017-08-22T05:51:53.018Z,1022.6
2017-08-22T05:52:52.091Z,1022.6
2017-08-22T05:53:51.166Z,1022.7
2017-08-22T05:54:50.365Z,1022.7
2017-08-22T05:55:49.556Z,1022.7
2017-08-22T05:56:48.639Z,1022.7
2017-08-22T05:57:48.211Z,1022.7
2017-08-22T05:58:47.281Z,1022.7
2017-08-22T05:59:46.353Z,1022.7
2017-08-22T06:00:45.542Z,1022.7
2017-08-22T06:01:44.762Z,1022.7
2017-08-22T06:02:44.346Z,1022.7
2017-08-22T06:03:43.544Z,1022.7
2017-08-22T06:04:42.723Z,1022.7
2017-08-22T06:05:41.563Z,1022.7
2017-08-22T06:06:41.152Z,1022.7
2017-08-22T06:07:40.339Z,1022.8
2017-08-22T06:08:39.427Z,1022.8
2017-08-22T06:09:38.494Z,1022.8
2017-08-22T06:10:37.699Z,1022.7
2017-08-22T06:11:36.788Z,1022.7
2017-08-22T06:12:36.485Z,1022.7
2017-08-22T06:13:35.686Z,1022.7
2017-08-22T06:14:34.762Z,1022.7
2017-08-22T06:15:33.847Z,1022.7
2017-08-22T06:16:32.921Z,1022.7
2017-08-22T06:17:32.123Z,1022.7
2017-08-22T06:18:31.317Z,1022.7
2017-08-22T06:19:30.521Z,1022.7
2017-08-22T06:20:29.713Z,1022.7
2017-08-22T06:21:28.908Z,1022.7
2017-08-22T06:22:28.607Z,1022.7
2017-08-22T06:23:27.788Z,1022.7
2017-08-22T06:25:25.863Z,1022.7
2017-08-22T06:26:25.191Z,1022.6
2017-08-22T06:27:24.377Z,1022.6
2017-08-22T06:28:23.844Z,1022.7
2017-08-22T06:29:22.911Z,1022.7
2017-08-22T06:30:21.856Z,1022.6
2017-08-22T06:32:20.440Z,1022.6
2017-08-22T06:33:19.620Z,1022.6
2017-08-22T06:34:18.827Z,1022.6
2017-08-22T06:35:18.024Z,1022.6
2017-08-22T06:36:17.241Z,1022.5
2017-08-22T06:37:16.703Z,1022.5
2017-08-22T06:38:16.049Z,1022.5
2017-08-22T06:39:15.118Z,1022.6
2017-08-22T06:40:14.314Z,1022.6
2017-08-22T06:41:13.399Z,1022.6
2017-08-22T06:42:12.478Z,1022.5
2017-08-22T06:43:12.180Z,1022.6
2017-08-22T06:44:11.364Z,1022.6
2017-08-22T06:45:10.440Z,1022.6
2017-08-22T06:46:09.637Z,1022.6
2017-08-22T06:47:08.846Z,1022.5
2017-08-22T06:48:07.916Z,1022.6
2017-08-22T06:49:07.102Z,1022.6
2017-08-22T06:50:06.718Z,1022.6
2017-08-22T06:51:05.797Z,1022.5
2017-08-22T06:52:04.992Z,1022.6
2017-08-22T06:53:03.956Z,1022.5
2017-08-22T06:54:03.523Z,1022.5
2017-08-22T06:55:02.592Z,1022.5
2017-08-22T06:56:02.043Z,1022.5
2017-08-22T06:56:32.548Z,1022.5
2017-08-22T06:57:02.935Z,1022.5
2017-08-22T06:57:33.212Z,1022.5
2017-08-22T06:58:59.586Z,1022.5
2017-08-22T06:59:58.780Z,1022.5
2017-08-22T07:00:57.983Z,1022.5
2017-08-22T07:01:57.172Z,1022.5
2017-08-22T07:02:56.362Z,1022.5
2017-08-22T07:03:55.449Z,1022.5
2017-08-22T07:04:54.637Z,1022.5
2017-08-22T07:05:54.223Z,1022.5
2017-08-22T07:06:53.302Z,1022.5
2017-08-22T07:07:23.812Z,1022.5
2017-08-22T07:07:54.083Z,1022.5
2017-08-22T07:08:51.664Z,1022.5
2017-08-22T07:09:50.866Z,1022.5
2017-08-22T07:10:50.321Z,1022.5
2017-08-22T07:11:49.520Z,1022.5
2017-08-22T07:12:48.473Z,1022.5
2017-08-22T07:13:48.048Z,1022.5
2017-08-22T07:15:46.542Z,1022.5
2017-08-22T07:17:44.616Z,1022.5
2017-08-22T07:19:43.473Z,1022.4
2017-08-22T07:20:42.544Z,1022.4
2017-08-22T07:21:41.737Z,1022.5
2017-08-22T07:22:41.190Z,1022.5
2017-08-22T07:23:40.388Z,1022.5
2017-08-22T07:24:39.579Z,1022.5
2017-08-22T07:25:38.759Z,1022.5
2017-08-22T07:26:38.211Z,1022.5
2017-08-22T07:27:37.290Z,1022.5
2017-08-22T07:29:36.161Z,1022.5
2017-08-22T07:30:34.862Z,1022.5
2017-08-22T07:31:33.924Z,1022.5
2017-08-22T07:32:33.511Z,1022.5
2017-08-22T07:34:32.135Z,1022.4
2017-08-22T07:35:31.324Z,1022.4
2017-08-22T07:36:30.515Z,1022.5
2017-08-22T07:37:29.471Z,1022.5
2017-08-22T07:38:28.659Z,1022.5
2017-08-22T07:39:27.850Z,1022.5
2017-08-22T07:40:27.543Z,1022.4
2017-08-22T07:41:26.728Z,1022.5
2017-08-22T07:42:25.938Z,1022.5
2017-08-22T07:43:25.001Z,1022.4
2017-08-22T07:44:24.209Z,1022.5
2017-08-22T07:45:23.396Z,1022.4
2017-08-22T07:46:22.971Z,1022.4
2017-08-22T07:46:53.351Z,1022.4
2017-08-22T07:47:23.852Z,1022.4
2017-08-22T07:47:54.517Z,1022.4
2017-08-22T07:49:20.374Z,1022.4
2017-08-22T07:50:19.952Z,1022.4
2017-08-22T07:51:19.157Z,1022.4
2017-08-22T07:52:18.350Z,1022.5
2017-08-22T07:53:17.540Z,1022.5
2017-08-22T07:54:16.525Z,1022.5
2017-08-22T07:55:16.219Z,1022.5
2017-08-22T07:56:15.356Z,1022.5
2017-08-22T07:57:14.559Z,1022.5
2017-08-22T07:58:13.623Z,1022.5
2017-08-22T07:59:12.981Z,1022.5
2017-08-22T08:00:12.178Z,1022.5
2017-08-22T08:01:11.756Z,1022.5
2017-08-22T08:02:10.963Z,1022.5
2017-08-22T08:03:10.159Z,1022.5
2017-08-22T08:04:09.227Z,1022.5
2017-08-22T08:05:08.686Z,1022.5
2017-08-22T08:08:06.431Z,1022.5
2017-08-22T08:09:05.610Z,1022.4
2017-08-22T08:10:04.685Z,1022.4
2017-08-22T08:11:04.149Z,1022.5
2017-08-22T08:12:03.232Z,1022.5
2017-08-22T08:13:02.464Z,1022.5
2017-08-22T08:14:01.802Z,1022.5
2017-08-22T08:15:01.003Z,1022.5
2017-08-22T08:16:00.195Z,1022.5
2017-08-22T08:16:59.390Z,1022.5
2017-08-22T08:17:58.985Z,1022.5
2017-08-22T08:18:58.171Z,1022.6
2017-08-22T08:19:57.142Z,1022.5
2017-08-22T08:20:56.845Z,1022.5
2017-08-22T08:21:56.053Z,1022.5
2017-08-22T08:22:54.999Z,1022.5
2017-08-22T08:23:54.467Z,1022.6
2017-08-22T08:24:53.668Z,1022.6
2017-08-22T08:25:52.870Z,1022.6
2017-08-22T08:26:52.344Z,1022.6
2017-08-22T08:27:51.529Z,1022.5
2017-08-22T08:28:50.610Z,1022.5
2017-08-22T08:29:49.951Z,1022.6
2017-08-22T08:30:49.529Z,1022.5
2017-08-22T08:31:48.485Z,1022.5
2017-08-22T08:32:47.952Z,1022.5
2017-08-22T08:33:47.143Z,1022.5
2017-08-22T08:35:45.772Z,1022.4
2017-08-22T08:36:44.968Z,1022.5
2017-08-22T08:37:44.307Z,1022.5
2017-08-22T08:38:43.376Z,1022.4
2017-08-22T08:39:42.577Z,1022.5
2017-08-22T08:40:42.160Z,1022.4
2017-08-22T08:41:41.242Z,1022.4
2017-08-22T08:42:40.448Z,1022.4
2017-08-22T08:43:39.630Z,1022.5
2017-08-22T08:44:39.220Z,1022.4
2017-08-22T08:45:38.409Z,1022.4
2017-08-22T08:46:37.599Z,1022.5
2017-08-22T08:47:37.187Z,1022.4
2017-08-22T08:48:36.291Z,1022.4
2017-08-22T08:49:35.378Z,1022.4
2017-08-22T08:50:34.972Z,1022.5
2017-08-22T08:51:34.031Z,1022.4
2017-08-22T08:52:33.109Z,1022.5
2017-08-22T08:53:32.811Z,1022.5
2017-08-22T08:55:31.389Z,1022.5
2017-08-22T08:56:30.464Z,1022.5
2017-08-22T08:57:29.528Z,1022.5
2017-08-22T08:58:29.100Z,1022.4
2017-08-22T08:59:28.312Z,1022.4
2017-08-22T09:00:27.781Z,1022.4
2017-08-22T09:01:27.006Z,1022.5
2017-08-22T09:02:25.956Z,1022.5
2017-08-22T09:03:25.526Z,1022.5
2017-08-22T09:04:24.615Z,1022.5
2017-08-22T09:05:24.101Z,1022.4
2017-08-22T09:06:23.183Z,1022.4
2017-08-22T09:08:22.022Z,1022.4
2017-08-22T09:09:21.222Z,1022.4
2017-08-22T09:10:20.304Z,1022.4
2017-08-22T09:11:19.883Z,1022.4
2017-08-22T09:12:19.075Z,1022.4
2017-08-22T09:13:18.530Z,1022.4
2017-08-22T09:14:17.727Z,1022.4
2017-08-22T09:15:16.930Z,1022.4
2017-08-22T09:16:16.121Z,1022.4
2017-08-22T09:17:15.714Z,1022.4
2017-08-22T09:18:14.663Z,1022.3
2017-08-22T09:19:14.253Z,1022.4
2017-08-22T09:20:13.451Z,1022.4
2017-08-22T09:21:12.529Z,1022.3
2017-08-22T09:22:12.162Z,1022.3
2017-08-22T09:23:11.350Z,1022.3
2017-08-22T09:24:10.800Z,1022.4
2017-08-22T09:25:09.887Z,1022.3
2017-08-22T09:25:40.399Z,1022.3
2017-08-22T09:26:10.816Z,1022.3
2017-08-22T09:26:41.222Z,1022.3
2017-08-22T09:27:11.720Z,1022.3
2017-08-22T09:28:07.901Z,1022.3
2017-08-22T09:29:06.983Z,1022.3
2017-08-22T09:30:06.179Z,1022.3
2017-08-22T09:31:05.887Z,1022.2
2017-08-22T09:32:04.974Z,1022.3
2017-08-22T09:33:04.433Z,1022.2
2017-08-22T09:34:03.493Z,1022.2
2017-08-22T09:35:02.696Z,1022.2
2017-08-22T09:36:02.391Z,1022.3
2017-08-22T09:37:01.341Z,1022.2
2017-08-22T09:38:00.533Z,1022.3
2017-08-22T09:39:00.231Z,1022.2
2017-08-22T09:39:59.310Z,1022.2
2017-08-22T09:40:58.794Z,1022.2
2017-08-22T09:41:57.753Z,1022.2
2017-08-22T09:42:57.332Z,1022.2
2017-08-22T09:44:55.685Z,1022.2
2017-08-22T09:45:55.260Z,1022.2
2017-08-22T09:46:54.326Z,1022.2
2017-08-22T09:47:53.893Z,1022.2
2017-08-22T09:48:52.975Z,1022.2
2017-08-22T09:49:52.558Z,1022.2
2017-08-22T09:50:51.645Z,1022.2
2017-08-22T09:51:50.832Z,1022.2
2017-08-22T09:52:50.297Z,1022.2
2017-08-22T09:53:49.377Z,1022.1
2017-08-22T09:54:48.967Z,1022.1
2017-08-22T09:55:48.424Z,1022.1
2017-08-22T09:56:47.321Z,1022.1
2017-08-22T09:57:46.922Z,1022.1
2017-08-22T09:58:46.006Z,1022.1
2017-08-22T09:59:45.692Z,1022
2017-08-22T10:00:44.892Z,1022.1
2017-08-22T10:01:43.849Z,1022
2017-08-22T10:02:43.594Z,1022
2017-08-22T10:03:42.791Z,1022
2017-08-22T10:04:41.976Z,1022.1
2017-08-22T10:05:41.171Z,1022
2017-08-22T10:06:40.865Z,1022.1
2017-08-22T10:07:40.061Z,1022.1
2017-08-22T10:08:39.251Z,1022
2017-08-22T10:09:38.446Z,1022
2017-08-22T10:10:37.646Z,1022
2017-08-22T10:12:36.617Z,1022
2017-08-22T10:13:35.795Z,1022
2017-08-22T10:14:34.992Z,1022
2017-08-22T10:16:33.972Z,1022
2017-08-22T10:17:33.194Z,1022
2017-08-22T10:18:32.262Z,1022
2017-08-22T10:19:31.450Z,1022
2017-08-22T10:20:31.041Z,1021.9
2017-08-22T10:21:30.502Z,1022
2017-08-22T10:22:29.471Z,1022
2017-08-22T10:23:29.040Z,1022
2017-08-22T10:24:28.125Z,1022
2017-08-22T10:25:27.596Z,1021.9
2017-08-22T10:27:25.937Z,1021.9
2017-08-22T10:28:25.635Z,1022
2017-08-22T10:29:24.834Z,1022
2017-08-22T10:30:24.036Z,1022
2017-08-22T10:31:23.248Z,1022
2017-08-22T10:32:22.944Z,1022
2017-08-22T10:33:22.030Z,1021.9
2017-08-22T10:34:21.209Z,1021.9
2017-08-22T10:35:20.671Z,1021.9
2017-08-22T10:36:19.875Z,1022
2017-08-22T10:37:19.069Z,1021.9
2017-08-22T10:38:18.776Z,1022
2017-08-22T10:39:17.861Z,1022
2017-08-22T10:40:17.054Z,1022
2017-08-22T10:41:16.752Z,1022
2017-08-22T10:42:15.832Z,1021.9
2017-08-22T10:43:15.052Z,1021.9
2017-08-22T10:44:14.255Z,1021.9
2017-08-22T10:45:13.823Z,1021.9
2017-08-22T10:46:12.896Z,1021.8
2017-08-22T10:47:12.585Z,1021.8
2017-08-22T10:48:11.935Z,1021.8
2017-08-22T10:49:11.139Z,1021.7
2017-08-22T10:50:10.209Z,1021.8
2017-08-22T10:51:09.781Z,1021.8
2017-08-22T10:52:08.849Z,1021.8
2017-08-22T10:53:08.562Z,1021.7
2017-08-22T10:54:07.764Z,1021.7
2017-08-22T10:55:06.884Z,1021.7
2017-08-22T10:56:06.452Z,1021.7
2017-08-22T10:57:05.410Z,1021.7
2017-08-22T10:58:04.755Z,1021.7
2017-08-22T10:59:04.275Z,1021.7
2017-08-22T11:00:03.354Z,1021.7
2017-08-22T11:01:02.697Z,1021.7
2017-08-22T11:02:02.166Z,1021.7
2017-08-22T11:03:01.367Z,1021.7
2017-08-22T11:04:01.082Z,1021.7
2017-08-22T11:05:00.155Z,1021.6
2017-08-22T11:05:59.615Z,1021.6
2017-08-22T11:06:58.684Z,1021.7
2017-08-22T11:07:58.371Z,1021.7
2017-08-22T11:08:57.334Z,1021.7
2017-08-22T11:09:56.920Z,1021.6
2017-08-22T11:10:56.010Z,1021.6
2017-08-22T11:11:55.217Z,1021.6
2017-08-22T11:12:54.788Z,1021.6
2017-08-22T11:13:53.873Z,1021.6
2017-08-22T11:14:53.448Z,1021.6
2017-08-22T11:15:52.648Z,1021.6
2017-08-22T11:16:51.836Z,1021.6
2017-08-22T11:17:51.550Z,1021.6
2017-08-22T11:18:50.755Z,1021.6
2017-08-22T11:19:49.956Z,1021.6
2017-08-22T11:20:49.150Z,1021.6
2017-08-22T11:21:48.840Z,1021.6
2017-08-22T11:22:48.038Z,1021.5
2017-08-22T11:23:47.219Z,1021.6
2017-08-22T11:24:46.908Z,1021.6
2017-08-22T11:25:46.093Z,1021.5
2017-08-22T11:27:44.442Z,1021.5
2017-08-22T11:28:44.037Z,1021.5
2017-08-22T11:29:43.106Z,1021.5
2017-08-22T11:31:42.091Z,1021.5
2017-08-22T11:32:41.548Z,1021.5
2017-08-22T11:33:40.747Z,1021.5
2017-08-22T11:34:39.819Z,1021.5
2017-08-22T11:35:39.532Z,1021.5
2017-08-22T11:36:38.726Z,1021.5
2017-08-22T11:37:37.807Z,1021.5
2017-08-22T11:38:37.530Z,1021.5
2017-08-22T11:40:35.989Z,1021.4
2017-08-22T11:41:35.185Z,1021.4
2017-08-22T11:43:33.769Z,1021.5
2017-08-22T11:44:33.231Z,1021.5
2017-08-22T11:45:32.918Z,1021.5
2017-08-22T11:46:32.114Z,1021.5
2017-08-22T11:47:31.446Z,1021.5
2017-08-22T11:48:30.523Z,1021.5
2017-08-22T11:49:29.984Z,1021.5
2017-08-22T11:50:29.176Z,1021.4
2017-08-22T11:51:28.757Z,1021.5
2017-08-22T11:52:27.962Z,1021.4
2017-08-22T11:53:27.419Z,1021.5
2017-08-22T11:54:26.503Z,1021.5
2017-08-22T11:55:25.964Z,1021.5
2017-08-22T11:56:25.154Z,1021.5
2017-08-22T11:57:24.846Z,1021.5
2017-08-22T11:58:24.021Z,1021.5
2017-08-22T11:59:23.219Z,1021.5
2017-08-22T12:01:22.307Z,1021.4
2017-08-22T12:02:21.378Z,1021.4
2017-08-22T12:03:20.557Z,1021.4
2017-08-22T12:04:20.137Z,1021.4
2017-08-22T12:05:19.337Z,1021.4
2017-08-22T12:06:18.586Z,1021.4
2017-08-22T12:07:18.279Z,1021.4
2017-08-22T12:08:17.462Z,1021.4
2017-08-22T12:09:16.656Z,1021.3
2017-08-22T12:10:16.358Z,1021.4
2017-08-22T12:11:15.425Z,1021.4
2017-08-22T12:12:15.011Z,1021.2
2017-08-22T12:13:14.076Z,1021.2
2017-08-22T12:14:13.304Z,1021.2
2017-08-22T12:15:13.012Z,1021.3
2017-08-22T12:16:12.212Z,1021.3
2017-08-22T12:17:11.681Z,1021.3
2017-08-22T12:18:10.750Z,1021.3
2017-08-22T12:19:10.444Z,1021.2
2017-08-22T12:20:09.400Z,1021.3
2017-08-22T12:22:08.246Z,1021.3
2017-08-22T12:24:06.829Z,1021.3
2017-08-22T12:25:06.520Z,1021.3
2017-08-22T12:27:05.252Z,1021.2
2017-08-22T12:28:04.439Z,1021.2
2017-08-22T12:29:03.905Z,1021.2
2017-08-22T12:30:03.099Z,1021.2
2017-08-22T12:31:02.176Z,1021.2
2017-08-22T12:32:01.756Z,1021.2
2017-08-22T12:33:00.948Z,1021.1
2017-08-22T12:34:00.642Z,1021.2
2017-08-22T12:34:59.846Z,1021.2
2017-08-22T12:35:59.061Z,1021.2
2017-08-22T12:36:58.764Z,1021.2
2017-08-22T12:37:57.842Z,1021.2
2017-08-22T12:38:57.050Z,1021.2
2017-08-22T12:40:56.137Z,1021.2
2017-08-22T12:41:55.330Z,1021.2
2017-08-22T12:42:54.914Z,1021.1
2017-08-22T12:43:25.312Z,1021.1
2017-08-22T12:44:53.588Z,1021.2
2017-08-22T12:45:53.051Z,1021.1
2017-08-22T12:48:51.025Z,1021.1
2017-08-22T12:50:49.596Z,1021.1
2017-08-22T12:51:48.782Z,1021.1
2017-08-22T12:52:48.237Z,1021.1
2017-08-22T12:53:47.823Z,1021.1
2017-08-22T12:54:47.028Z,1021.2